createdAt,value
2022-08-19T00:14:50.041Z,22.68
2022-08-19T00:34:50.070Z,22.50
2022-08-19T00:54:50.007Z,22.37
2022-08-19T01:14:50.039Z,22.50
2022-08-19T01:34:49.971Z,22.37
2022-08-19T01:54:49.904Z,22.56
2022-08-19T02:14:49.931Z,22.56
2022-08-19T02:34:49.863Z,22.50
2022-08-19T02:54:49.906Z,22.50
2022-08-19T03:14:49.826Z,22.50
2022-08-19T03:34:49.856Z,22.31
2022-08-19T03:54:49.791Z,22.18
2022-08-19T04:14:49.722Z,22.31
2022-08-19T04:34:49.754Z,22.31
2022-08-19T04:54:49.681Z,22.25
2022-08-19T05:14:49.723Z,22.18
2022-08-19T05:34:49.647Z,22.31
2022-08-19T05:54:49.681Z,22.25
2022-08-19T06:14:49.613Z,22.25
2022-08-19T06:34:49.536Z,22.43
2022-08-19T06:54:49.577Z,22.12
2022-08-19T07:14:49.503Z,22.18
2022-08-19T07:34:49.549Z,22.18
2022-08-19T07:54:49.473Z,22.12
2022-08-19T08:14:49.401Z,22.12
2022-08-19T08:34:49.436Z,22.18
2022-08-19T08:54:49.374Z,22.12
2022-08-19T09:14:49.406Z,22.18
2022-08-19T09:34:49.341Z,22.25
2022-08-19T09:54:49.282Z,22.25
2022-08-19T10:14:49.300Z,22.18
2022-08-19T10:34:49.240Z,22.25
2022-08-19T10:54:49.283Z,22.25
2022-08-19T11:14:49.203Z,22.31
2022-08-19T11:34:49.146Z,22.43
2022-08-19T11:54:49.177Z,22.43
2022-08-19T12:14:49.118Z,22.43
2022-08-19T12:34:49.138Z,22.43
2022-08-19T12:54:49.072Z,22.31
2022-08-19T13:14:49.005Z,22.43
2022-08-19T13:34:49.062Z,22.25
2022-08-19T13:54:48.977Z,22.31
2022-08-19T14:14:49.014Z,22.56
2022-08-19T14:34:48.953Z,22.43
2022-08-19T14:54:48.876Z,22.37
2022-08-19T15:14:48.909Z,22.43
2022-08-19T15:34:48.840Z,22.25
2022-08-19T15:54:48.874Z,22.25
2022-08-19T16:14:48.804Z,22.31
2022-08-19T16:34:48.742Z,22.25
2022-08-19T16:54:48.771Z,22.31
2022-08-19T17:14:48.705Z,22.06
2022-08-19T17:34:48.748Z,22.18
2022-08-19T17:54:48.660Z,22.06
2022-08-19T18:14:48.599Z,22.31
2022-08-19T18:34:48.627Z,22.25
2022-08-19T18:54:48.554Z,22.00
2022-08-19T19:14:48.589Z,22.12
2022-08-19T19:34:48.517Z,22.06
2022-08-19T19:54:48.537Z,22.06
2022-08-19T20:14:48.469Z,22.00
2022-08-19T20:34:48.499Z,22.00
2022-08-19T20:54:48.426Z,22.00
2022-08-19T21:14:48.457Z,22.00
2022-08-19T21:34:48.387Z,21.93
2022-08-19T21:54:48.312Z,21.87
2022-08-19T22:14:48.341Z,22.00
2022-08-19T22:34:48.268Z,22.00
2022-08-19T22:54:48.301Z,22.00
2022-08-19T23:14:48.229Z,21.87
2022-08-19T23:34:48.263Z,21.75
2022-08-19T23:54:48.186Z,21.75
